sensor_id;sensor_type;location;lat;lon;timestamp;P1;durP1;ratioP1;P2;durP2;ratioP2
64686;SDS011;51113;53.646;-113.674;2023-04-15T00:01:58;2.15;;;1.42;;
64686;SDS011;51113;53.646;-113.674;2023-04-15T00:04:27;3.25;;;1.60;;
64686;SDS011;51113;53.646;-113.674;2023-04-15T00:06:56;4.82;;;1.40;;
64686;SDS011;51113;53.646;-113.674;2023-04-15T00:09:24;4.70;;;1.20;;
64686;SDS011;51113;53.646;-113.674;2023-04-15T00:11:53;2.92;;;1.40;;
64686;SDS011;51113;53.646;-113.674;2023-04-15T00:14:21;5.60;;;1.90;;
64686;SDS011;51113;53.646;-113.674;2023-04-15T00:16:50;2.63;;;1.50;;
64686;SDS011;51113;53.646;-113.674;2023-04-15T00:19:22;4.38;;;1.70;;
64686;SDS011;51113;53.646;-113.674;2023-04-15T00:21:51;3.28;;;1.50;;
64686;SDS011;51113;53.646;-113.674;2023-04-15T00:24:20;8.20;;;1.63;;
64686;SDS011;51113;53.646;-113.674;2023-04-15T00:26:48;2.10;;;1.45;;
64686;SDS011;51113;53.646;-113.674;2023-04-15T00:29:17;4.45;;;1.40;;
64686;SDS011;51113;53.646;-113.674;2023-04-15T00:31:46;6.68;;;1.80;;
64686;SDS011;51113;53.646;-113.674;2023-04-15T00:34:14;2.90;;;1.50;;
64686;SDS011;51113;53.646;-113.674;2023-04-15T00:36:43;4.85;;;1.90;;
64686;SDS011;51113;53.646;-113.674;2023-04-15T00:39:11;4.93;;;1.63;;
64686;SDS011;51113;53.646;-113.674;2023-04-15T00:41:41;3.22;;;1.52;;
64686;SDS011;51113;53.646;-113.674;2023-04-15T00:44:12;9.75;;;1.80;;
64686;SDS011;51113;53.646;-113.674;2023-04-15T00:46:41;5.13;;;1.60;;
64686;SDS011;51113;53.646;-113.674;2023-04-15T00:49:10;6.05;;;1.60;;
64686;SDS011;51113;53.646;-113.674;2023-04-15T00:51:39;7.85;;;1.58;;
64686;SDS011;51113;53.646;-113.674;2023-04-15T00:54:08;2.75;;;1.80;;
64686;SDS011;51113;53.646;-113.674;2023-04-15T00:56:38;4.85;;;1.70;;
64686;SDS011;51113;53.646;-113.674;2023-04-15T00:59:07;4.20;;;1.90;;
64686;SDS011;51113;53.646;-113.674;2023-04-15T01:01:36;3.15;;;1.48;;
64686;SDS011;51113;53.646;-113.674;2023-04-15T01:04:05;2.30;;;1.50;;
64686;SDS011;51113;53.646;-113.674;2023-04-15T01:06:33;4.15;;;1.83;;
64686;SDS011;51113;53.646;-113.674;2023-04-15T01:09:02;5.88;;;1.73;;
64686;SDS011;51113;53.646;-113.674;2023-04-15T01:11:31;3.65;;;1.50;;
64686;SDS011;51113;53.646;-113.674;2023-04-15T01:14:03;3.60;;;1.80;;
64686;SDS011;51113;53.646;-113.674;2023-04-15T01:16:32;4.28;;;1.73;;
64686;SDS011;51113;53.646;-113.674;2023-04-15T01:19:01;4.47;;;1.67;;
64686;SDS011;51113;53.646;-113.674;2023-04-15T01:21:29;2.75;;;1.60;;
64686;SDS011;51113;53.646;-113.674;2023-04-15T01:23:58;4.63;;;1.77;;
64686;SDS011;51113;53.646;-113.674;2023-04-15T01:26:27;4.22;;;1.70;;
64686;SDS011;51113;53.646;-113.674;2023-04-15T01:28:57;7.50;;;1.90;;
64686;SDS011;51113;53.646;-113.674;2023-04-15T01:31:26;4.45;;;2.05;;
64686;SDS011;51113;53.646;-113.674;2023-04-15T01:33:54;8.65;;;2.05;;
64686;SDS011;51113;53.646;-113.674;2023-04-15T01:36:23;4.18;;;1.60;;
64686;SDS011;51113;53.646;-113.674;2023-04-15T01:38:52;4.35;;;1.80;;
64686;SDS011;51113;53.646;-113.674;2023-04-15T01:41:24;3.72;;;1.52;;
64686;SDS011;51113;53.646;-113.674;2023-04-15T01:43:55;2.78;;;1.33;;
64686;SDS011;51113;53.646;-113.674;2023-04-15T01:46:24;5.95;;;1.52;;
64686;SDS011;51113;53.646;-113.674;2023-04-15T01:48:53;3.97;;;1.30;;
64686;SDS011;51113;53.646;-113.674;2023-04-15T01:51:21;5.57;;;2.28;;
64686;SDS011;51113;53.646;-113.674;2023-04-15T01:53:49;45.72;;;17.23;;
64686;SDS011;51113;53.646;-113.674;2023-04-15T01:56:19;41.83;;;18.55;;
64686;SDS011;51113;53.646;-113.674;2023-04-15T01:58:47;16.80;;;7.28;;
64686;SDS011;51113;53.646;-113.674;2023-04-15T02:01:16;4.03;;;2.00;;
64686;SDS011;51113;53.646;-113.674;2023-04-15T02:03:46;4.57;;;1.70;;
64686;SDS011;51113;53.646;-113.674;2023-04-15T02:06:15;3.33;;;1.60;;
64686;SDS011;51113;53.646;-113.674;2023-04-15T02:08:45;3.60;;;1.75;;
64686;SDS011;51113;53.646;-113.674;2023-04-15T02:11:14;39.38;;;15.98;;
64686;SDS011;51113;53.646;-113.674;2023-04-15T02:13:43;34.40;;;13.32;;
64686;SDS011;51113;53.646;-113.674;2023-04-15T02:16:15;30.05;;;13.85;;
64686;SDS011;51113;53.646;-113.674;2023-04-15T02:18:45;32.47;;;15.75;;
64686;SDS011;51113;53.646;-113.674;2023-04-15T02:21:14;26.65;;;11.60;;
64686;SDS011;51113;53.646;-113.674;2023-04-15T02:23:42;8.90;;;2.30;;
64686;SDS011;51113;53.646;-113.674;2023-04-15T02:26:11;10.38;;;5.13;;
64686;SDS011;51113;53.646;-113.674;2023-04-15T02:28:40;12.07;;;4.38;;
64686;SDS011;51113;53.646;-113.674;2023-04-15T02:31:09;20.38;;;8.18;;
64686;SDS011;51113;53.646;-113.674;2023-04-15T02:33:37;35.00;;;16.35;;
64686;SDS011;51113;53.646;-113.674;2023-04-15T02:36:06;18.30;;;7.65;;
64686;SDS011;51113;53.646;-113.674;2023-04-15T02:38:35;6.25;;;2.35;;
64686;SDS011;51113;53.646;-113.674;2023-04-15T02:41:04;6.10;;;3.42;;
64686;SDS011;51113;53.646;-113.674;2023-04-15T02:43:33;7.72;;;4.47;;
64686;SDS011;51113;53.646;-113.674;2023-04-15T02:46:02;8.05;;;2.35;;
64686;SDS011;51113;53.646;-113.674;2023-04-15T02:48:31;3.53;;;2.08;;
64686;SDS011;51113;53.646;-113.674;2023-04-15T02:51:12;6.18;;;1.90;;
64686;SDS011;51113;53.646;-113.674;2023-04-15T02:53:41;6.13;;;1.92;;
64686;SDS011;51113;53.646;-113.674;2023-04-15T02:56:10;6.18;;;2.33;;
64686;SDS011;51113;53.646;-113.674;2023-04-15T02:58:39;7.55;;;2.47;;
64686;SDS011;51113;53.646;-113.674;2023-04-15T03:01:07;4.88;;;2.17;;
64686;SDS011;51113;53.646;-113.674;2023-04-15T03:03:36;5.80;;;2.88;;
64686;SDS011;51113;53.646;-113.674;2023-04-15T03:06:05;9.15;;;2.60;;
64686;SDS011;51113;53.646;-113.674;2023-04-15T03:08:35;7.13;;;3.20;;
64686;SDS011;51113;53.646;-113.674;2023-04-15T03:11:04;9.30;;;2.92;;
64686;SDS011;51113;53.646;-113.674;2023-04-15T03:13:34;7.50;;;4.55;;
64686;SDS011;51113;53.646;-113.674;2023-04-15T03:16:03;4.50;;;2.88;;
64686;SDS011;51113;53.646;-113.674;2023-04-15T03:18:32;10.90;;;4.32;;
64686;SDS011;51113;53.646;-113.674;2023-04-15T03:21:01;5.90;;;3.22;;
64686;SDS011;51113;53.646;-113.674;2023-04-15T03:23:29;10.38;;;3.00;;
64686;SDS011;51113;53.646;-113.674;2023-04-15T03:26:02;8.13;;;4.97;;
64686;SDS011;51113;53.646;-113.674;2023-04-15T03:28:31;6.72;;;2.70;;
64686;SDS011;51113;53.646;-113.674;2023-04-15T03:30:59;4.53;;;2.78;;
64686;SDS011;51113;53.646;-113.674;2023-04-15T03:33:27;5.90;;;3.30;;
64686;SDS011;51113;53.646;-113.674;2023-04-15T03:35:56;5.20;;;2.90;;
64686;SDS011;51113;53.646;-113.674;2023-04-15T03:38:25;5.47;;;2.90;;
64686;SDS011;51113;53.646;-113.674;2023-04-15T03:40:53;7.15;;;2.92;;
64686;SDS011;51113;53.646;-113.674;2023-04-15T03:43:22;10.13;;;3.05;;
64686;SDS011;51113;53.646;-113.674;2023-04-15T03:45:50;9.50;;;2.97;;
64686;SDS011;51113;53.646;-113.674;2023-04-15T03:48:19;5.82;;;3.28;;
64686;SDS011;51113;53.646;-113.674;2023-04-15T03:50:48;6.95;;;2.83;;
64686;SDS011;51113;53.646;-113.674;2023-04-15T03:53:17;4.95;;;2.80;;
64686;SDS011;51113;53.646;-113.674;2023-04-15T03:55:45;6.20;;;2.75;;
64686;SDS011;51113;53.646;-113.674;2023-04-15T03:58:13;3.58;;;2.50;;
64686;SDS011;51113;53.646;-113.674;2023-04-15T04:00:42;4.07;;;2.72;;
64686;SDS011;51113;53.646;-113.674;2023-04-15T04:03:11;8.40;;;2.83;;
64686;SDS011;51113;53.646;-113.674;2023-04-15T04:05:40;5.28;;;3.00;;
64686;SDS011;51113;53.646;-113.674;2023-04-15T04:08:09;6.05;;;3.08;;
64686;SDS011;51113;53.646;-113.674;2023-04-15T04:10:41;4.07;;;2.97;;
64686;SDS011;51113;53.646;-113.674;2023-04-15T04:13:09;6.68;;;3.17;;
64686;SDS011;51113;53.646;-113.674;2023-04-15T04:15:38;6.85;;;3.25;;
64686;SDS011;51113;53.646;-113.674;2023-04-15T04:18:06;16.73;;;3.58;;
64686;SDS011;51113;53.646;-113.674;2023-04-15T04:20:34;8.77;;;3.88;;
64686;SDS011;51113;53.646;-113.674;2023-04-15T04:23:03;9.98;;;3.53;;
64686;SDS011;51113;53.646;-113.674;2023-04-15T04:25:32;6.18;;;3.60;;
64686;SDS011;51113;53.646;-113.674;2023-04-15T04:28:00;9.70;;;3.72;;
64686;SDS011;51113;53.646;-113.674;2023-04-15T04:30:29;11.95;;;3.72;;
64686;SDS011;51113;53.646;-113.674;2023-04-15T04:32:58;7.43;;;3.60;;
64686;SDS011;51113;53.646;-113.674;2023-04-15T04:35:27;4.95;;;3.58;;
64686;SDS011;51113;53.646;-113.674;2023-04-15T04:37:55;9.55;;;3.80;;
64686;SDS011;51113;53.646;-113.674;2023-04-15T04:40:24;7.30;;;3.90;;
64686;SDS011;51113;53.646;-113.674;2023-04-15T04:42:53;10.18;;;4.40;;
64686;SDS011;51113;53.646;-113.674;2023-04-15T04:45:21;9.52;;;4.10;;
64686;SDS011;51113;53.646;-113.674;2023-04-15T04:47:50;6.43;;;3.88;;
64686;SDS011;51113;53.646;-113.674;2023-04-15T04:50:18;7.07;;;4.00;;
64686;SDS011;51113;53.646;-113.674;2023-04-15T04:52:47;7.43;;;3.70;;
64686;SDS011;51113;53.646;-113.674;2023-04-15T04:55:16;7.45;;;3.60;;
64686;SDS011;51113;53.646;-113.674;2023-04-15T04:57:45;8.60;;;4.18;;
64686;SDS011;51113;53.646;-113.674;2023-04-15T05:00:14;7.57;;;3.92;;
64686;SDS011;51113;53.646;-113.674;2023-04-15T05:02:43;8.57;;;3.50;;
64686;SDS011;51113;53.646;-113.674;2023-04-15T05:05:12;6.40;;;4.15;;
64686;SDS011;51113;53.646;-113.674;2023-04-15T05:07:40;7.40;;;3.40;;
64686;SDS011;51113;53.646;-113.674;2023-04-15T05:10:09;7.85;;;4.15;;
64686;SDS011;51113;53.646;-113.674;2023-04-15T05:12:38;6.53;;;4.13;;
64686;SDS011;51113;53.646;-113.674;2023-04-15T05:15:07;8.13;;;3.65;;
64686;SDS011;51113;53.646;-113.674;2023-04-15T05:17:36;8.10;;;3.72;;
64686;SDS011;51113;53.646;-113.674;2023-04-15T05:20:05;5.05;;;3.53;;
64686;SDS011;51113;53.646;-113.674;2023-04-15T05:22:34;5.22;;;3.45;;
64686;SDS011;51113;53.646;-113.674;2023-04-15T05:25:03;14.00;;;3.80;;
64686;SDS011;51113;53.646;-113.674;2023-04-15T05:27:32;11.00;;;4.30;;
64686;SDS011;51113;53.646;-113.674;2023-04-15T05:30:01;8.43;;;4.60;;
64686;SDS011;51113;53.646;-113.674;2023-04-15T05:32:30;16.85;;;4.40;;
64686;SDS011;51113;53.646;-113.674;2023-04-15T05:34:58;11.70;;;4.43;;
64686;SDS011;51113;53.646;-113.674;2023-04-15T05:37:26;6.45;;;4.10;;
64686;SDS011;51113;53.646;-113.674;2023-04-15T05:39:55;7.70;;;3.95;;
64686;SDS011;51113;53.646;-113.674;2023-04-15T05:42:23;7.20;;;4.20;;
64686;SDS011;51113;53.646;-113.674;2023-04-15T05:44:52;12.23;;;4.28;;
64686;SDS011;51113;53.646;-113.674;2023-04-15T05:47:21;12.75;;;4.47;;
64686;SDS011;51113;53.646;-113.674;2023-04-15T05:49:50;10.63;;;4.40;;
64686;SDS011;51113;53.646;-113.674;2023-04-15T05:52:18;8.13;;;4.10;;
64686;SDS011;51113;53.646;-113.674;2023-04-15T05:54:46;8.52;;;4.60;;
64686;SDS011;51113;53.646;-113.674;2023-04-15T05:57:15;12.20;;;4.80;;
64686;SDS011;51113;53.646;-113.674;2023-04-15T05:59:43;10.77;;;4.95;;
64686;SDS011;51113;53.646;-113.674;2023-04-15T06:02:12;8.50;;;4.97;;
64686;SDS011;51113;53.646;-113.674;2023-04-15T06:04:41;19.02;;;5.13;;
64686;SDS011;51113;53.646;-113.674;2023-04-15T06:07:09;13.60;;;5.00;;
64686;SDS011;51113;53.646;-113.674;2023-04-15T06:09:39;9.40;;;4.50;;
64686;SDS011;51113;53.646;-113.674;2023-04-15T06:12:09;10.77;;;4.65;;
64686;SDS011;51113;53.646;-113.674;2023-04-15T06:14:38;17.40;;;5.40;;
64686;SDS011;51113;53.646;-113.674;2023-04-15T06:17:07;11.50;;;5.20;;
64686;SDS011;51113;53.646;-113.674;2023-04-15T06:19:36;7.10;;;4.55;;
64686;SDS011;51113;53.646;-113.674;2023-04-15T06:22:04;11.80;;;5.43;;
64686;SDS011;51113;53.646;-113.674;2023-04-15T06:24:33;12.93;;;4.65;;
64686;SDS011;51113;53.646;-113.674;2023-04-15T06:27:03;8.18;;;5.03;;
64686;SDS011;51113;53.646;-113.674;2023-04-15T06:29:32;8.93;;;5.35;;
64686;SDS011;51113;53.646;-113.674;2023-04-15T06:32:00;15.98;;;5.70;;
64686;SDS011;51113;53.646;-113.674;2023-04-15T06:34:29;11.43;;;5.10;;
64686;SDS011;51113;53.646;-113.674;2023-04-15T06:36:57;9.43;;;5.63;;
64686;SDS011;51113;53.646;-113.674;2023-04-15T06:39:29;9.20;;;5.45;;
64686;SDS011;51113;53.646;-113.674;2023-04-15T06:41:57;12.80;;;6.30;;
64686;SDS011;51113;53.646;-113.674;2023-04-15T06:44:26;8.88;;;5.53;;
64686;SDS011;51113;53.646;-113.674;2023-04-15T06:46:56;10.43;;;5.70;;
64686;SDS011;51113;53.646;-113.674;2023-04-15T06:49:25;7.13;;;5.00;;
64686;SDS011;51113;53.646;-113.674;2023-04-15T06:51:53;14.45;;;5.80;;
64686;SDS011;51113;53.646;-113.674;2023-04-15T06:54:22;10.77;;;5.43;;
64686;SDS011;51113;53.646;-113.674;2023-04-15T06:56:51;9.50;;;4.95;;
64686;SDS011;51113;53.646;-113.674;2023-04-15T06:59:19;11.57;;;5.88;;
64686;SDS011;51113;53.646;-113.674;2023-04-15T07:01:48;10.43;;;5.70;;
64686;SDS011;51113;53.646;-113.674;2023-04-15T07:04:17;13.65;;;6.10;;
64686;SDS011;51113;53.646;-113.674;2023-04-15T07:06:46;10.48;;;5.68;;
64686;SDS011;51113;53.646;-113.674;2023-04-15T07:09:14;11.18;;;6.72;;
64686;SDS011;51113;53.646;-113.674;2023-04-15T07:11:43;11.35;;;5.85;;
64686;SDS011;51113;53.646;-113.674;2023-04-15T07:14:11;10.18;;;5.78;;
64686;SDS011;51113;53.646;-113.674;2023-04-15T07:16:40;7.40;;;5.70;;
64686;SDS011;51113;53.646;-113.674;2023-04-15T07:19:09;15.10;;;6.10;;
64686;SDS011;51113;53.646;-113.674;2023-04-15T07:21:38;18.25;;;7.47;;
64686;SDS011;51113;53.646;-113.674;2023-04-15T07:24:07;14.38;;;7.05;;
64686;SDS011;51113;53.646;-113.674;2023-04-15T07:26:37;11.18;;;6.85;;
64686;SDS011;51113;53.646;-113.674;2023-04-15T07:29:05;11.00;;;6.28;;
64686;SDS011;51113;53.646;-113.674;2023-04-15T07:31:34;10.77;;;7.25;;
64686;SDS011;51113;53.646;-113.674;2023-04-15T07:34:03;12.75;;;6.78;;
64686;SDS011;51113;53.646;-113.674;2023-04-15T07:36:33;15.00;;;6.28;;
64686;SDS011;51113;53.646;-113.674;2023-04-15T07:39:02;10.15;;;6.43;;
64686;SDS011;51113;53.646;-113.674;2023-04-15T07:41:31;10.85;;;7.05;;
64686;SDS011;51113;53.646;-113.674;2023-04-15T07:43:59;12.70;;;7.00;;
64686;SDS011;51113;53.646;-113.674;2023-04-15T07:46:28;16.55;;;7.85;;
64686;SDS011;51113;53.646;-113.674;2023-04-15T07:48:57;14.05;;;7.55;;
64686;SDS011;51113;53.646;-113.674;2023-04-15T07:51:26;10.40;;;6.72;;
64686;SDS011;51113;53.646;-113.674;2023-04-15T07:53:56;10.90;;;6.43;;
64686;SDS011;51113;53.646;-113.674;2023-04-15T07:56:25;16.48;;;7.13;;
64686;SDS011;51113;53.646;-113.674;2023-04-15T07:58:54;12.68;;;6.78;;
64686;SDS011;51113;53.646;-113.674;2023-04-15T08:01:23;12.98;;;7.53;;
64686;SDS011;51113;53.646;-113.674;2023-04-15T08:03:51;10.43;;;7.53;;
64686;SDS011;51113;53.646;-113.674;2023-04-15T08:06:20;10.68;;;7.50;;
64686;SDS011;51113;53.646;-113.674;2023-04-15T08:08:49;13.32;;;8.00;;
64686;SDS011;51113;53.646;-113.674;2023-04-15T08:11:19;12.57;;;8.32;;
64686;SDS011;51113;53.646;-113.674;2023-04-15T08:13:48;12.20;;;7.00;;
64686;SDS011;51113;53.646;-113.674;2023-04-15T08:16:20;11.23;;;7.95;;
64686;SDS011;51113;53.646;-113.674;2023-04-15T08:18:54;14.60;;;9.38;;
64686;SDS011;51113;53.646;-113.674;2023-04-15T08:21:24;13.20;;;7.75;;
64686;SDS011;51113;53.646;-113.674;2023-04-15T08:23:54;13.05;;;8.90;;
64686;SDS011;51113;53.646;-113.674;2023-04-15T08:26:22;14.75;;;8.32;;
64686;SDS011;51113;53.646;-113.674;2023-04-15T08:28:51;13.90;;;8.80;;
64686;SDS011;51113;53.646;-113.674;2023-04-15T08:31:19;13.20;;;8.82;;
64686;SDS011;51113;53.646;-113.674;2023-04-15T08:33:49;13.35;;;8.32;;
64686;SDS011;51113;53.646;-113.674;2023-04-15T08:36:19;16.33;;;8.98;;
64686;SDS011;51113;53.646;-113.674;2023-04-15T08:38:47;14.18;;;9.63;;
64686;SDS011;51113;53.646;-113.674;2023-04-15T08:41:20;15.30;;;9.57;;
64686;SDS011;51113;53.646;-113.674;2023-04-15T08:43:53;17.73;;;9.52;;
64686;SDS011;51113;53.646;-113.674;2023-04-15T08:46:25;20.27;;;9.95;;
64686;SDS011;51113;53.646;-113.674;2023-04-15T08:48:55;15.35;;;9.23;;
64686;SDS011;51113;53.646;-113.674;2023-04-15T08:51:25;18.30;;;9.20;;
64686;SDS011;51113;53.646;-113.674;2023-04-15T08:53:54;14.95;;;9.18;;
64686;SDS011;51113;53.646;-113.674;2023-04-15T08:56:23;21.83;;;10.35;;
64686;SDS011;51113;53.646;-113.674;2023-04-15T08:58:56;16.88;;;10.43;;
64686;SDS011;51113;53.646;-113.674;2023-04-15T09:01:25;18.65;;;11.13;;
64686;SDS011;51113;53.646;-113.674;2023-04-15T09:03:55;18.63;;;11.63;;
64686;SDS011;51113;53.646;-113.674;2023-04-15T09:06:24;20.75;;;11.73;;
64686;SDS011;51113;53.646;-113.674;2023-04-15T09:08:52;22.85;;;11.20;;
64686;SDS011;51113;53.646;-113.674;2023-04-15T09:11:21;16.15;;;11.20;;
64686;SDS011;51113;53.646;-113.674;2023-04-15T09:13:50;24.35;;;12.43;;
64686;SDS011;51113;53.646;-113.674;2023-04-15T09:16:19;16.67;;;10.20;;
64686;SDS011;51113;53.646;-113.674;2023-04-15T09:18:47;21.40;;;12.05;;
64686;SDS011;51113;53.646;-113.674;2023-04-15T09:21:16;19.60;;;11.85;;
64686;SDS011;51113;53.646;-113.674;2023-04-15T09:23:59;19.92;;;10.60;;
64686;SDS011;51113;53.646;-113.674;2023-04-15T09:26:32;18.52;;;10.43;;
64686;SDS011;51113;53.646;-113.674;2023-04-15T09:31:33;17.48;;;10.38;;
64686;SDS011;51113;53.646;-113.674;2023-04-15T09:34:04;17.90;;;10.32;;
64686;SDS011;51113;53.646;-113.674;2023-04-15T09:36:53;20.10;;;11.98;;
64686;SDS011;51113;53.646;-113.674;2023-04-15T09:39:23;20.63;;;12.90;;
64686;SDS011;51113;53.646;-113.674;2023-04-15T09:42:05;22.15;;;13.18;;
64686;SDS011;51113;53.646;-113.674;2023-04-15T09:44:34;22.20;;;13.35;;
64686;SDS011;51113;53.646;-113.674;2023-04-15T09:47:03;23.35;;;12.85;;
64686;SDS011;51113;53.646;-113.674;2023-04-15T09:49:31;23.05;;;12.82;;
64686;SDS011;51113;53.646;-113.674;2023-04-15T09:52:01;21.52;;;13.00;;
64686;SDS011;51113;53.646;-113.674;2023-04-15T09:54:36;17.27;;;12.18;;
64686;SDS011;51113;53.646;-113.674;2023-04-15T09:57:05;18.00;;;11.32;;
64686;SDS011;51113;53.646;-113.674;2023-04-15T09:59:36;24.67;;;13.48;;
64686;SDS011;51113;53.646;-113.674;2023-04-15T10:02:04;20.65;;;12.18;;
64686;SDS011;51113;53.646;-113.674;2023-04-15T10:04:34;26.50;;;14.90;;
64686;SDS011;51113;53.646;-113.674;2023-04-15T10:07:05;21.33;;;12.20;;
64686;SDS011;51113;53.646;-113.674;2023-04-15T10:09:38;25.42;;;13.75;;
64686;SDS011;51113;53.646;-113.674;2023-04-15T10:12:08;17.40;;;11.50;;
64686;SDS011;51113;53.646;-113.674;2023-04-15T10:14:37;23.73;;;12.38;;
64686;SDS011;51113;53.646;-113.674;2023-04-15T10:17:05;20.98;;;13.25;;
64686;SDS011;51113;53.646;-113.674;2023-04-15T10:19:35;25.27;;;14.20;;
64686;SDS011;51113;53.646;-113.674;2023-04-15T10:22:05;23.85;;;13.02;;
64686;SDS011;51113;53.646;-113.674;2023-04-15T10:24:34;19.35;;;13.30;;
64686;SDS011;51113;53.646;-113.674;2023-04-15T10:27:03;24.27;;;13.88;;
64686;SDS011;51113;53.646;-113.674;2023-04-15T10:29:33;19.77;;;13.15;;
64686;SDS011;51113;53.646;-113.674;2023-04-15T10:32:02;31.90;;;16.30;;
64686;SDS011;51113;53.646;-113.674;2023-04-15T10:34:30;25.55;;;15.20;;
64686;SDS011;51113;53.646;-113.674;2023-04-15T10:37:03;24.85;;;14.35;;
64686;SDS011;51113;53.646;-113.674;2023-04-15T10:42:14;29.00;;;14.77;;
64686;SDS011;51113;53.646;-113.674;2023-04-15T10:44:45;27.55;;;15.07;;
64686;SDS011;51113;53.646;-113.674;2023-04-15T10:47:17;25.50;;;14.07;;
64686;SDS011;51113;53.646;-113.674;2023-04-15T10:52:17;22.10;;;12.70;;
64686;SDS011;51113;53.646;-113.674;2023-04-15T10:55:00;28.42;;;15.13;;
64686;SDS011;51113;53.646;-113.674;2023-04-15T10:57:52;20.23;;;13.32;;
64686;SDS011;51113;53.646;-113.674;2023-04-15T11:00:27;22.45;;;13.50;;
64686;SDS011;51113;53.646;-113.674;2023-04-15T11:08:10;26.83;;;15.27;;
64686;SDS011;51113;53.646;-113.674;2023-04-15T11:15:42;28.70;;;16.38;;
64686;SDS011;51113;53.646;-113.674;2023-04-15T11:18:12;25.00;;;14.68;;
64686;SDS011;51113;53.646;-113.674;2023-04-15T11:20:49;26.08;;;15.05;;
64686;SDS011;51113;53.646;-113.674;2023-04-15T11:23:19;22.70;;;13.95;;
64686;SDS011;51113;53.646;-113.674;2023-04-15T11:25:55;27.60;;;15.27;;
64686;SDS011;51113;53.646;-113.674;2023-04-15T11:28:25;25.60;;;14.93;;
64686;SDS011;51113;53.646;-113.674;2023-04-15T11:30:55;22.13;;;14.70;;
64686;SDS011;51113;53.646;-113.674;2023-04-15T11:33:24;22.90;;;14.23;;
64686;SDS011;51113;53.646;-113.674;2023-04-15T11:35:53;23.55;;;13.98;;
64686;SDS011;51113;53.646;-113.674;2023-04-15T11:38:22;31.42;;;16.27;;
64686;SDS011;51113;53.646;-113.674;2023-04-15T11:40:51;27.63;;;15.23;;
64686;SDS011;51113;53.646;-113.674;2023-04-15T11:43:20;29.48;;;15.95;;
64686;SDS011;51113;53.646;-113.674;2023-04-15T11:45:53;24.38;;;15.27;;
64686;SDS011;51113;53.646;-113.674;2023-04-15T11:48:24;22.17;;;14.05;;
64686;SDS011;51113;53.646;-113.674;2023-04-15T11:51:00;27.23;;;13.13;;
64686;SDS011;51113;53.646;-113.674;2023-04-15T11:53:39;18.88;;;12.60;;
64686;SDS011;51113;53.646;-113.674;2023-04-15T11:56:19;20.80;;;12.95;;
64686;SDS011;51113;53.646;-113.674;2023-04-15T11:58:52;20.98;;;14.40;;
64686;SDS011;51113;53.646;-113.674;2023-04-15T12:01:33;20.48;;;13.27;;
64686;SDS011;51113;53.646;-113.674;2023-04-15T12:04:09;28.65;;;14.80;;
64686;SDS011;51113;53.646;-113.674;2023-04-15T12:06:39;22.02;;;14.02;;
64686;SDS011;51113;53.646;-113.674;2023-04-15T12:09:09;22.30;;;13.35;;
64686;SDS011;51113;53.646;-113.674;2023-04-15T12:11:40;24.50;;;15.35;;
64686;SDS011;51113;53.646;-113.674;2023-04-15T12:14:26;26.23;;;13.85;;
64686;SDS011;51113;53.646;-113.674;2023-04-15T12:17:00;23.77;;;14.40;;
64686;SDS011;51113;53.646;-113.674;2023-04-15T12:19:35;28.30;;;16.10;;
64686;SDS011;51113;53.646;-113.674;2023-04-15T12:22:07;27.55;;;15.68;;
64686;SDS011;51113;53.646;-113.674;2023-04-15T12:24:37;36.10;;;17.75;;
64686;SDS011;51113;53.646;-113.674;2023-04-15T12:27:07;24.35;;;14.98;;
64686;SDS011;51113;53.646;-113.674;2023-04-15T12:29:39;25.92;;;15.82;;
64686;SDS011;51113;53.646;-113.674;2023-04-15T12:32:10;36.88;;;17.42;;
64686;SDS011;51113;53.646;-113.674;2023-04-15T12:34:49;24.80;;;14.15;;
64686;SDS011;51113;53.646;-113.674;2023-04-15T12:37:18;20.48;;;13.73;;
64686;SDS011;51113;53.646;-113.674;2023-04-15T12:39:48;25.58;;;15.45;;
64686;SDS011;51113;53.646;-113.674;2023-04-15T12:42:17;30.27;;;14.20;;
64686;SDS011;51113;53.646;-113.674;2023-04-15T12:44:46;30.77;;;15.52;;
64686;SDS011;51113;53.646;-113.674;2023-04-15T12:47:14;27.30;;;15.02;;
64686;SDS011;51113;53.646;-113.674;2023-04-15T12:49:43;23.10;;;15.13;;
64686;SDS011;51113;53.646;-113.674;2023-04-15T12:52:12;27.23;;;14.73;;
64686;SDS011;51113;53.646;-113.674;2023-04-15T12:54:41;28.10;;;14.55;;
64686;SDS011;51113;53.646;-113.674;2023-04-15T12:57:10;23.45;;;13.93;;
64686;SDS011;51113;53.646;-113.674;2023-04-15T12:59:39;22.88;;;13.82;;
64686;SDS011;51113;53.646;-113.674;2023-04-15T13:02:07;25.92;;;15.57;;
64686;SDS011;51113;53.646;-113.674;2023-04-15T13:04:36;28.90;;;15.50;;
64686;SDS011;51113;53.646;-113.674;2023-04-15T13:07:05;29.92;;;15.93;;
64686;SDS011;51113;53.646;-113.674;2023-04-15T13:09:33;24.63;;;16.05;;
64686;SDS011;51113;53.646;-113.674;2023-04-15T13:12:03;20.45;;;13.85;;
64686;SDS011;51113;53.646;-113.674;2023-04-15T13:14:32;24.55;;;13.77;;
64686;SDS011;51113;53.646;-113.674;2023-04-15T13:17:00;23.00;;;14.68;;
64686;SDS011;51113;53.646;-113.674;2023-04-15T13:19:30;22.35;;;14.18;;
64686;SDS011;51113;53.646;-113.674;2023-04-15T13:21:59;27.55;;;14.70;;
64686;SDS011;51113;53.646;-113.674;2023-04-15T13:24:28;35.92;;;14.38;;
64686;SDS011;51113;53.646;-113.674;2023-04-15T13:26:57;27.50;;;15.60;;
64686;SDS011;51113;53.646;-113.674;2023-04-15T13:29:25;27.63;;;15.38;;
64686;SDS011;51113;53.646;-113.674;2023-04-15T13:31:54;24.23;;;14.18;;
64686;SDS011;51113;53.646;-113.674;2023-04-15T13:34:23;25.05;;;15.20;;
64686;SDS011;51113;53.646;-113.674;2023-04-15T13:36:52;27.55;;;15.93;;
64686;SDS011;51113;53.646;-113.674;2023-04-15T13:39:20;23.83;;;14.40;;
64686;SDS011;51113;53.646;-113.674;2023-04-15T13:41:49;28.65;;;14.50;;
64686;SDS011;51113;53.646;-113.674;2023-04-15T13:44:18;19.55;;;13.35;;
64686;SDS011;51113;53.646;-113.674;2023-04-15T13:46:47;22.77;;;15.32;;
64686;SDS011;51113;53.646;-113.674;2023-04-15T13:49:16;23.17;;;13.93;;
64686;SDS011;51113;53.646;-113.674;2023-04-15T13:51:45;22.08;;;13.98;;
64686;SDS011;51113;53.646;-113.674;2023-04-15T13:54:13;27.08;;;13.52;;
64686;SDS011;51113;53.646;-113.674;2023-04-15T13:56:42;26.50;;;13.93;;
64686;SDS011;51113;53.646;-113.674;2023-04-15T13:59:10;24.55;;;13.43;;
64686;SDS011;51113;53.646;-113.674;2023-04-15T14:01:39;23.90;;;13.68;;
64686;SDS011;51113;53.646;-113.674;2023-04-15T14:04:08;23.65;;;13.50;;
64686;SDS011;51113;53.646;-113.674;2023-04-15T14:06:37;28.05;;;13.52;;
64686;SDS011;51113;53.646;-113.674;2023-04-15T14:09:05;21.48;;;13.32;;
64686;SDS011;51113;53.646;-113.674;2023-04-15T14:11:34;24.23;;;14.13;;
64686;SDS011;51113;53.646;-113.674;2023-04-15T14:14:05;26.58;;;13.45;;
64686;SDS011;51113;53.646;-113.674;2023-04-15T14:16:33;26.45;;;14.07;;
64686;SDS011;51113;53.646;-113.674;2023-04-15T14:19:02;24.95;;;14.75;;
64686;SDS011;51113;53.646;-113.674;2023-04-15T14:21:31;29.02;;;15.13;;
64686;SDS011;51113;53.646;-113.674;2023-04-15T14:24:00;21.60;;;13.05;;
64686;SDS011;51113;53.646;-113.674;2023-04-15T14:26:29;23.45;;;13.40;;
64686;SDS011;51113;53.646;-113.674;2023-04-15T14:28:57;24.23;;;13.77;;